createdAt,value
2023-02-18T05:54:32.488Z,7.79
2023-02-18T05:55:33.721Z,7.93
2023-02-18T05:56:32.759Z,7.93
2023-02-18T05:57:33.724Z,7.82
2023-02-18T05:58:33.195Z,7.93
2023-02-18T05:59:32.781Z,7.93
2023-02-18T06:00:32.955Z,7.95
2023-02-18T06:01:32.313Z,7.88
2023-02-18T06:02:32.433Z,7.93
2023-02-18T06:03:32.458Z,7.98
2023-02-18T06:04:32.180Z,7.97
2023-02-18T06:05:32.133Z,8.03
2023-02-18T06:06:32.629Z,7.98
2023-02-18T06:07:31.916Z,7.98
2023-02-18T06:08:31.734Z,8.01
2023-02-18T06:09:32.162Z,8.01
2023-02-18T06:10:32.377Z,8.03
2023-02-18T06:11:33.201Z,7.98
2023-02-18T06:12:32.120Z,7.94
2023-02-18T06:13:32.134Z,8.01
2023-02-18T06:14:32.619Z,7.95
2023-02-18T06:15:32.837Z,7.97
2023-02-18T06:16:32.838Z,7.88
2023-02-18T06:17:32.240Z,7.93
2023-02-18T06:18:32.667Z,7.94
2023-02-18T06:19:32.355Z,7.94
2023-02-18T06:20:32.029Z,7.94
2023-02-18T06:21:32.282Z,7.98
2023-02-18T06:22:32.598Z,7.87
2023-02-18T06:23:32.424Z,7.88
2023-02-18T06:24:32.627Z,7.9
2023-02-18T06:25:32.042Z,7.9
2023-02-18T06:26:32.407Z,8
2023-02-18T06:27:33.070Z,7.9
2023-02-18T06:28:32.700Z,7.85
2023-02-18T06:29:32.061Z,7.83
2023-02-18T06:30:32.922Z,7.95
2023-02-18T06:31:32.750Z,7.93
2023-02-18T06:32:33.043Z,7.93
2023-02-18T06:33:33.593Z,7.93
2023-02-18T06:34:33.465Z,7.93
2023-02-18T06:35:32.985Z,7.93
2023-02-18T06:36:33.205Z,7.9
2023-02-18T06:37:32.232Z,7.91
2023-02-18T06:38:32.695Z,7.94
2023-02-18T06:39:32.410Z,7.9
2023-02-18T06:40:32.889Z,7.97
2023-02-18T06:41:32.499Z,7.95
2023-02-18T06:42:32.573Z,7.94
2023-02-18T06:43:32.776Z,7.94
2023-02-18T06:44:32.501Z,7.91
2023-02-18T06:45:32.009Z,7.93
2023-02-18T06:46:32.795Z,7.9
2023-02-18T06:47:32.524Z,7.94
2023-02-18T06:48:32.920Z,8
2023-02-18T06:49:32.578Z,8.01
2023-02-18T06:50:33.011Z,8.03
2023-02-18T06:51:32.768Z,8.03
2023-02-18T06:52:33.439Z,8.03
2023-02-18T06:53:32.641Z,7.98
2023-02-18T06:54:33.785Z,7.97
2023-02-18T06:55:32.672Z,8
2023-02-18T06:56:35.581Z,7.97
2023-02-18T06:57:32.615Z,8
2023-02-18T06:58:32.717Z,8.08
2023-02-18T06:59:33.926Z,8.15
2023-02-18T07:00:32.439Z,8.09
2023-02-18T07:01:32.565Z,8.13
2023-02-18T07:02:32.658Z,8.13
2023-02-18T07:03:32.709Z,8.15
2023-02-18T07:04:33.066Z,8.15
2023-02-18T07:05:33.022Z,8.2
2023-02-18T07:06:33.245Z,8.18
2023-02-18T07:07:33.038Z,8.18
2023-02-18T07:08:33.751Z,8.31
2023-02-18T07:09:33.224Z,8.18
2023-02-18T07:10:33.614Z,8.2
2023-02-18T07:11:32.924Z,8.18
2023-02-18T07:12:33.502Z,8.28
2023-02-18T07:13:32.660Z,8.33
2023-02-18T07:14:32.729Z,8.27
2023-02-18T07:15:32.792Z,8.24
2023-02-18T07:16:32.596Z,8.37
2023-02-18T07:17:32.752Z,8.34
2023-02-18T07:18:32.534Z,8.24
2023-02-18T07:19:32.443Z,8.19
2023-02-18T07:20:32.627Z,8.2
2023-02-18T07:21:32.703Z,8.2
2023-02-18T07:22:32.942Z,8.2
2023-02-18T07:23:33.374Z,8.28
2023-02-18T07:24:33.063Z,8.27
2023-02-18T07:25:32.487Z,8.23
2023-02-18T07:26:33.233Z,8.34
2023-02-18T07:27:32.246Z,8.38
2023-02-18T07:28:32.729Z,8.34
2023-02-18T07:29:32.528Z,8.34
2023-02-18T07:30:33.412Z,8.31
2023-02-18T07:31:33.599Z,8.31
2023-02-18T07:32:33.263Z,8.42
2023-02-18T07:33:32.566Z,8.41
2023-02-18T07:34:33.422Z,8.42
2023-02-18T07:35:32.767Z,8.41
2023-02-18T07:36:33.744Z,8.45
2023-02-18T07:37:32.988Z,8.51
2023-02-18T07:38:32.842Z,8.58
2023-02-18T07:39:33.084Z,8.58
2023-02-18T07:40:32.646Z,8.51
2023-02-18T07:41:33.148Z,8.63
2023-02-18T07:42:33.780Z,8.58
2023-02-18T07:43:33.864Z,8.69
2023-02-18T07:44:32.946Z,8.67
2023-02-18T07:45:33.980Z,8.69
2023-02-18T07:46:33.594Z,8.84
2023-02-18T07:47:32.669Z,8.76
2023-02-18T07:48:33.237Z,8.89
2023-02-18T07:49:32.453Z,8.89
2023-02-18T07:50:33.401Z,8.95
2023-02-18T07:51:32.852Z,8.95
2023-02-18T07:52:32.976Z,8.97
2023-02-18T07:53:33.264Z,9
2023-02-18T07:54:32.979Z,8.97
2023-02-18T07:55:33.341Z,9.02
2023-02-18T07:56:33.335Z,9.06
2023-02-18T07:57:33.330Z,9.04
2023-02-18T07:58:33.306Z,9.02
2023-02-18T07:59:33.248Z,9.06
2023-02-18T08:00:33.168Z,9.08
2023-02-18T08:01:33.857Z,9.13
2023-02-18T08:02:33.240Z,9.08
2023-02-18T08:03:33.128Z,9.13
2023-02-18T08:04:33.066Z,9.16
2023-02-18T08:05:33.300Z,9.14
2023-02-18T08:06:33.531Z,9.25
2023-02-18T08:07:33.399Z,9.28
2023-02-18T08:08:35.167Z,9.36
2023-02-18T08:09:32.728Z,9.34
2023-02-18T08:10:32.861Z,9.34
2023-02-18T08:11:33.137Z,9.4
2023-02-18T08:12:32.962Z,9.4
2023-02-18T08:13:33.148Z,9.44
2023-02-18T08:14:33.519Z,9.48
2023-02-18T08:15:33.164Z,9.54
2023-02-18T08:16:33.077Z,9.51
2023-02-18T08:17:34.129Z,9.55
2023-02-18T08:18:33.863Z,9.58
2023-02-18T08:19:33.210Z,9.56
2023-02-18T08:20:35.809Z,9.58
2023-02-18T08:21:33.489Z,9.58
2023-02-18T08:22:33.555Z,9.66
2023-02-18T08:23:33.266Z,9.68
2023-02-18T08:24:33.290Z,9.65
2023-02-18T08:25:34.824Z,9.69
2023-02-18T08:26:33.370Z,9.76
2023-02-18T08:27:33.266Z,9.76
2023-02-18T08:28:33.592Z,9.86
2023-02-18T08:29:33.359Z,9.95
2023-02-18T08:30:34.561Z,9.83
2023-02-18T08:31:33.822Z,9.89
2023-02-18T08:32:32.826Z,9.91
2023-02-18T08:33:33.810Z,9.97
2023-02-18T08:34:33.527Z,9.94
2023-02-18T08:35:33.115Z,9.97
2023-02-18T08:36:33.645Z,9.95
2023-02-18T08:37:55.755Z,9.84
2023-02-18T08:38:33.714Z,9.94
2023-02-18T08:39:33.405Z,9.98
2023-02-18T08:40:33.746Z,10.01
2023-02-18T08:41:33.684Z,9.97
2023-02-18T08:42:33.223Z,10.09
2023-02-18T08:43:33.565Z,10.02
2023-02-18T08:44:33.782Z,10.02
2023-02-18T08:45:35.126Z,10.15
2023-02-18T08:46:40.800Z,9.98
2023-02-18T08:48:24.806Z,10.05
2023-02-18T08:48:35.834Z,10.13
2023-02-18T08:49:37.223Z,10.05
2023-02-18T08:50:36.172Z,9.95
2023-02-18T08:51:36.080Z,10.04
2023-02-18T08:52:36.184Z,9.92
2023-02-18T08:53:35.618Z,9.94
2023-02-18T08:54:35.713Z,10.01
2023-02-18T08:55:35.654Z,9.95
2023-02-18T08:56:35.909Z,10.12
2023-02-18T08:57:36.281Z,10.12
2023-02-18T08:58:36.334Z,10.19
2023-02-18T08:59:36.520Z,10.2
2023-02-18T09:00:35.989Z,10.19
2023-02-18T09:01:35.888Z,10.26
2023-02-18T09:02:36.246Z,10.22
2023-02-18T09:03:36.194Z,10.25
2023-02-18T09:04:36.313Z,10.19
2023-02-18T09:05:37.778Z,10.31
2023-02-18T09:06:36.066Z,10.19
2023-02-18T09:07:36.019Z,10.26
2023-02-18T09:08:36.329Z,10.2
2023-02-18T09:09:35.772Z,10.19
2023-02-18T09:10:36.328Z,10.15
2023-02-18T09:11:35.777Z,10.04
2023-02-18T09:12:36.144Z,9.97
2023-02-18T09:13:36.798Z,9.92
2023-02-18T09:14:36.402Z,9.98
2023-02-18T09:15:36.273Z,9.94
2023-02-18T09:16:36.414Z,9.91
2023-02-18T09:17:36.273Z,9.94
2023-02-18T09:18:37.224Z,9.94
2023-02-18T09:19:36.588Z,9.92
2023-02-18T09:20:36.672Z,10.02
2023-02-18T09:21:36.175Z,10.05
2023-02-18T09:22:36.486Z,10.02
2023-02-18T09:23:36.166Z,10.16
2023-02-18T09:24:36.430Z,10.05
2023-02-18T09:25:35.935Z,10.17
2023-02-18T09:26:36.147Z,10.13
2023-02-18T09:27:36.785Z,10.12
2023-02-18T09:28:36.167Z,10.26
2023-02-18T09:29:35.937Z,10.3
2023-02-18T09:30:36.685Z,10.3
2023-02-18T09:31:36.299Z,10.38
2023-02-18T09:32:40.760Z,10.35
2023-02-18T09:33:35.972Z,10.44
2023-02-18T09:34:36.246Z,10.51
2023-02-18T09:35:36.974Z,10.54
2023-02-18T09:36:36.266Z,10.51
2023-02-18T09:37:36.333Z,10.69
2023-02-18T09:38:36.136Z,10.64
2023-02-18T09:39:36.279Z,10.78
2023-02-18T09:40:36.564Z,10.75
2023-02-18T09:41:36.292Z,10.78
2023-02-18T09:42:36.048Z,10.74
2023-02-18T09:43:37.107Z,10.86
2023-02-18T09:44:36.059Z,10.89
2023-02-18T09:45:36.343Z,10.97
2023-02-18T09:46:36.730Z,10.93
2023-02-18T09:47:36.364Z,10.96
2023-02-18T09:48:36.712Z,11.07
2023-02-18T09:49:36.118Z,11.04
2023-02-18T09:50:36.185Z,11.18
2023-02-18T09:51:36.509Z,11.19
2023-02-18T09:52:37.408Z,11.19
2023-02-18T09:53:37.291Z,11.35
2023-02-18T09:54:37.333Z,11.44
2023-02-18T09:55:37.154Z,11.51
2023-02-18T09:56:39.078Z,11.59
2023-02-18T09:57:36.472Z,11.72
2023-02-18T09:58:36.456Z,11.69
2023-02-18T09:59:37.046Z,11.73
2023-02-18T10:00:36.628Z,11.87
2023-02-18T10:01:36.460Z,11.84
2023-02-18T10:02:36.844Z,11.91
2023-02-18T10:03:36.569Z,11.8
2023-02-18T10:04:36.727Z,11.88
2023-02-18T10:05:36.377Z,11.87
2023-02-18T10:06:36.853Z,11.86
2023-02-18T10:07:37.143Z,11.95
2023-02-18T10:08:36.398Z,12.03
2023-02-18T10:09:36.652Z,12.06
2023-02-18T10:10:36.465Z,12.06
2023-02-18T10:11:37.201Z,12.1
2023-02-18T10:12:39.770Z,12.17
2023-02-18T10:13:36.998Z,12.18
2023-02-18T10:14:36.376Z,12.21
2023-02-18T10:15:37.926Z,12.31
2023-02-18T10:16:37.203Z,12.25
2023-02-18T10:17:36.471Z,12.4
2023-02-18T10:18:37.641Z,12.45
2023-02-18T10:19:36.681Z,12.42
2023-02-18T10:20:37.141Z,12.55
2023-02-18T10:21:36.272Z,12.67
2023-02-18T10:22:36.722Z,12.67
2023-02-18T10:23:37.462Z,12.79
2023-02-18T10:24:36.477Z,12.86
2023-02-18T10:25:36.811Z,13.01
2023-02-18T10:26:37.206Z,13.08
2023-02-18T10:27:36.785Z,13.2
2023-02-18T10:28:36.846Z,13.05
2023-02-18T10:29:36.810Z,13.11
2023-02-18T10:30:36.678Z,13.05
2023-02-18T10:31:37.807Z,12.95
2023-02-18T10:32:36.576Z,12.97
2023-02-18T10:33:36.850Z,12.85
2023-02-18T10:34:37.363Z,12.8
2023-02-18T10:35:38.316Z,12.79
2023-02-18T10:36:38.112Z,12.75
2023-02-18T10:37:36.904Z,12.7
2023-02-18T10:38:37.502Z,12.7
2023-02-18T10:39:38.293Z,12.64
2023-02-18T10:40:36.937Z,12.61
2023-02-18T10:41:36.977Z,12.61
2023-02-18T10:42:37.360Z,12.57
2023-02-18T10:43:36.712Z,12.62
2023-02-18T10:44:36.779Z,12.67
2023-02-18T10:45:36.997Z,12.62
2023-02-18T10:46:37.236Z,12.57
2023-02-18T10:47:37.867Z,12.6
2023-02-18T10:48:37.225Z,12.67
2023-02-18T10:49:37.687Z,12.67
2023-02-18T10:50:37.284Z,12.73
2023-02-18T10:51:37.417Z,12.75
2023-02-18T10:52:37.570Z,12.79
2023-02-18T10:53:37.493Z,12.75
2023-02-18T10:54:36.570Z,12.8
2023-02-18T10:55:37.870Z,12.65
2023-02-18T10:56:37.300Z,12.62
2023-02-18T10:57:37.189Z,12.64
2023-02-18T10:58:37.044Z,12.54
2023-02-18T10:59:37.172Z,12.55
2023-02-18T11:00:37.460Z,12.49
2023-02-18T11:01:37.843Z,12.55
2023-02-18T11:02:37.284Z,12.55
2023-02-18T11:03:37.192Z,12.45
2023-02-18T11:04:37.639Z,12.45
2023-02-18T11:05:37.195Z,12.47
2023-02-18T11:06:37.737Z,12.45
2023-02-18T11:07:37.223Z,12.49
2023-02-18T11:08:37.996Z,12.54
2023-02-18T11:09:37.905Z,12.54
2023-02-18T11:10:37.208Z,12.5
2023-02-18T11:11:37.673Z,12.45
2023-02-18T11:12:37.749Z,12.47
2023-02-18T11:13:37.353Z,12.4
2023-02-18T11:14:37.702Z,12.42
2023-02-18T11:15:37.069Z,12.45
2023-02-18T11:16:37.809Z,12.47
2023-02-18T11:17:36.969Z,12.47
2023-02-18T11:18:37.345Z,12.46
2023-02-18T11:19:37.091Z,12.47
2023-02-18T11:20:37.182Z,12.43
2023-02-18T11:21:37.386Z,12.45
2023-02-18T11:22:37.201Z,12.42
2023-02-18T11:23:37.420Z,12.43
2023-02-18T11:24:37.426Z,12.42
2023-02-18T11:25:37.046Z,12.43
2023-02-18T11:26:37.427Z,12.45
2023-02-18T11:27:37.009Z,12.46
2023-02-18T11:28:38.105Z,12.43
2023-02-18T11:29:38.277Z,12.47
2023-02-18T11:30:38.343Z,12.43
2023-02-18T11:31:37.255Z,12.46
2023-02-18T11:32:37.529Z,12.45
2023-02-18T11:33:38.333Z,12.42
2023-02-18T11:34:37.274Z,12.46
2023-02-18T11:35:37.525Z,12.45
2023-02-18T11:36:37.908Z,12.42
2023-02-18T11:37:37.552Z,12.42
2023-02-18T11:38:37.887Z,12.43
2023-02-18T11:39:37.599Z,12.42
2023-02-18T11:40:37.600Z,12.45
2023-02-18T11:41:38.187Z,12.39
2023-02-18T11:42:37.604Z,12.36
2023-02-18T11:43:37.973Z,12.29
2023-02-18T11:44:37.512Z,12.35
2023-02-18T11:45:38.313Z,12.27
2023-02-18T11:46:38.454Z,12.27
2023-02-18T11:47:37.445Z,12.25
2023-02-18T11:48:37.981Z,12.29
2023-02-18T11:49:37.809Z,12.25
2023-02-18T11:50:37.661Z,12.25
2023-02-18T11:51:37.796Z,12.27
2023-02-18T11:52:37.804Z,12.31
2023-02-18T11:53:37.796Z,12.27
2023-02-18T11:54:37.541Z,12.24
2023-02-18T11:55:37.231Z,12.22
2023-02-18T11:56:37.527Z,12.18
2023-02-18T11:57:38.549Z,12.18
2023-02-18T11:58:37.681Z,12.2
2023-02-18T11:59:37.567Z,12.15
2023-02-18T12:00:38.409Z,12.09
2023-02-18T12:01:37.996Z,12.15
2023-02-18T12:02:38.443Z,12.17
2023-02-18T12:03:40.143Z,12.15
2023-02-18T12:04:37.595Z,12.2
2023-02-18T12:05:38.167Z,12.21
2023-02-18T12:06:37.860Z,12.39
2023-02-18T12:07:37.659Z,12.4
2023-02-18T12:08:38.595Z,12.49
2023-02-18T12:09:37.938Z,12.65
2023-02-18T12:10:37.839Z,12.72
2023-02-18T12:11:37.687Z,12.8
2023-02-18T12:12:37.960Z,12.91
2023-02-18T12:13:38.442Z,12.91
2023-02-18T12:14:38.323Z,12.98
2023-02-18T12:15:38.114Z,13.13
2023-02-18T12:16:38.615Z,13.08
2023-02-18T12:17:38.408Z,13.12
2023-02-18T12:18:42.807Z,13
2023-02-18T12:19:38.391Z,13.01
2023-02-18T12:20:38.047Z,12.98
2023-02-18T12:21:38.472Z,12.98
2023-02-18T12:22:38.295Z,12.91
2023-02-18T12:23:38.428Z,12.98
2023-02-18T12:24:39.091Z,12.83
2023-02-18T12:25:38.622Z,12.82
2023-02-18T12:26:39.203Z,12.8
2023-02-18T12:27:37.956Z,12.79
2023-02-18T12:28:38.767Z,12.79
2023-02-18T12:29:42.098Z,12.83
2023-02-18T12:30:39.447Z,12.79
2023-02-18T12:31:38.516Z,12.76
2023-02-18T12:32:38.640Z,12.78
2023-02-18T12:33:41.949Z,12.75
2023-02-18T12:34:38.493Z,12.78
2023-02-18T12:35:38.023Z,12.76
2023-02-18T12:36:38.315Z,12.75
2023-02-18T12:37:39.036Z,12.76
2023-02-18T12:38:38.091Z,12.65
2023-02-18T12:39:41.038Z,12.62
2023-02-18T12:40:39.526Z,12.62
2023-02-18T12:41:38.200Z,12.64
2023-02-18T12:42:39.040Z,12.53
2023-02-18T12:43:38.344Z,12.5
2023-02-18T12:44:38.591Z,12.45
2023-02-18T12:45:38.502Z,12.55
2023-02-18T12:46:38.424Z,12.4
2023-02-18T12:47:39.975Z,12.45
2023-02-18T12:48:38.199Z,12.4
2023-02-18T12:49:38.434Z,12.32
2023-02-18T12:50:38.413Z,12.24
2023-02-18T12:51:38.575Z,12.24
2023-02-18T12:52:38.153Z,12.28
2023-02-18T12:53:38.158Z,12.22
2023-02-18T12:54:38.923Z,12.22
2023-02-18T12:55:38.464Z,12.29
2023-02-18T12:56:39.109Z,12.42
2023-02-18T12:57:39.602Z,12.43
2023-02-18T12:58:39.872Z,12.46
2023-02-18T12:59:40.048Z,12.47
2023-02-18T13:00:39.002Z,12.43
2023-02-18T13:01:38.793Z,12.55
2023-02-18T13:02:39.256Z,12.47
2023-02-18T13:03:38.883Z,12.53
2023-02-18T13:04:42.367Z,12.53
2023-02-18T13:05:38.978Z,12.47
2023-02-18T13:06:38.930Z,12.5
2023-02-18T13:07:39.504Z,12.55
2023-02-18T13:08:39.359Z,12.46
2023-02-18T13:09:38.594Z,12.43
2023-02-18T13:10:38.930Z,12.42
2023-02-18T13:11:38.625Z,12.42
2023-02-18T13:12:38.441Z,12.47
2023-02-18T13:13:39.036Z,12.36
2023-02-18T13:14:38.389Z,12.36
2023-02-18T13:15:39.248Z,12.24
2023-02-18T13:16:38.830Z,12.24
2023-02-18T13:17:38.804Z,12.28
2023-02-18T13:18:38.730Z,12.27
2023-02-18T13:19:38.945Z,12.35
2023-02-18T13:20:39.432Z,12.35
2023-02-18T13:21:38.732Z,12.31
2023-02-18T13:22:38.590Z,12.29
2023-02-18T13:23:38.865Z,12.24
2023-02-18T13:24:38.752Z,12.24
2023-02-18T13:25:38.769Z,12.25
2023-02-18T13:26:39.094Z,12.28
2023-02-18T13:27:38.645Z,12.28
2023-02-18T13:28:38.964Z,12.29
2023-02-18T13:29:38.819Z,12.31
2023-02-18T13:30:39.208Z,12.39
2023-02-18T13:31:39.883Z,12.39
2023-02-18T13:32:38.835Z,12.45
2023-02-18T13:33:38.852Z,12.42
2023-02-18T13:34:39.800Z,12.45
2023-02-18T13:35:38.627Z,12.42
2023-02-18T13:36:39.859Z,12.4
2023-02-18T13:37:39.076Z,12.46
2023-02-18T13:38:39.741Z,12.65
2023-02-18T13:39:39.912Z,12.62
2023-02-18T13:40:38.681Z,12.7
2023-02-18T13:41:38.950Z,12.65
2023-02-18T13:42:39.254Z,12.79
2023-02-18T13:43:39.045Z,12.72
2023-02-18T13:44:39.198Z,12.65
2023-02-18T13:45:38.951Z,12.67
2023-02-18T13:46:39.346Z,12.64
2023-02-18T13:47:39.654Z,12.61
2023-02-18T13:48:39.062Z,12.61
2023-02-18T13:49:39.077Z,12.53
2023-02-18T13:50:40.756Z,12.54
2023-02-18T13:51:39.133Z,12.5
2023-02-18T13:52:39.647Z,12.64
2023-02-18T13:53:39.080Z,12.61
2023-02-18T13:54:39.121Z,12.64
2023-02-18T13:55:38.700Z,12.67
2023-02-18T13:56:39.117Z,12.62
2023-02-18T13:57:39.110Z,12.67
2023-02-18T13:58:39.449Z,12.68
2023-02-18T13:59:39.352Z,12.64
2023-02-18T14:00:39.536Z,12.67
2023-02-18T14:01:38.927Z,12.65
2023-02-18T14:02:39.336Z,12.65
2023-02-18T14:03:39.343Z,12.55
2023-02-18T14:04:39.211Z,12.65
2023-02-18T14:05:39.188Z,12.62
2023-02-18T14:06:41.445Z,12.65
2023-02-18T14:07:39.345Z,12.5
2023-02-18T14:08:39.619Z,12.45
2023-02-18T14:09:39.277Z,12.47
2023-02-18T14:10:39.350Z,12.24
2023-02-18T14:11:39.777Z,12.35
2023-02-18T14:12:39.061Z,12.29
2023-02-18T14:13:39.312Z,12.17
2023-02-18T14:14:39.727Z,12.12
2023-02-18T14:15:39.496Z,12.17
2023-02-18T14:16:39.407Z,12.15
2023-02-18T14:17:39.857Z,12.07
2023-02-18T14:18:42.904Z,11.97
2023-02-18T14:19:42.073Z,12
2023-02-18T14:20:40.163Z,11.97
2023-02-18T14:21:39.919Z,11.99
2023-02-18T14:22:39.631Z,12.07
2023-02-18T14:23:40.081Z,11.9
2023-02-18T14:24:39.315Z,11.94
2023-02-18T14:25:39.170Z,12.02
2023-02-18T14:26:39.484Z,11.9
2023-02-18T14:27:39.180Z,11.88
2023-02-18T14:28:39.576Z,11.99
2023-02-18T14:29:39.484Z,11.99
2023-02-18T14:30:40.318Z,12.06
2023-02-18T14:31:39.834Z,12.06
2023-02-18T14:32:39.290Z,12.04
2023-02-18T14:33:40.823Z,12.1
2023-02-18T14:34:39.521Z,12.15
2023-02-18T14:35:39.644Z,12.2
2023-02-18T14:36:40.101Z,12.24
2023-02-18T14:37:40.143Z,12.22
2023-02-18T14:38:40.755Z,12.24
2023-02-18T14:39:39.339Z,12.25
2023-02-18T14:40:39.635Z,12.28
2023-02-18T14:41:40.450Z,12.27
2023-02-18T14:42:39.642Z,12.22
2023-02-18T14:43:39.625Z,12.21
2023-02-18T14:44:39.436Z,12.17
2023-02-18T14:45:39.563Z,12.07
2023-02-18T14:46:40.438Z,12.13
2023-02-18T14:47:39.665Z,12.2
2023-02-18T14:48:39.708Z,12.13
2023-02-18T14:49:40.443Z,12.18
2023-02-18T14:50:39.662Z,12.22
2023-02-18T14:51:39.735Z,12.24
2023-02-18T14:52:40.342Z,12.35
2023-02-18T14:53:39.731Z,12.4
2023-02-18T14:54:41.142Z,12.35
2023-02-18T14:55:40.365Z,12.4
2023-02-18T14:56:40.271Z,12.39
2023-02-18T14:57:41.172Z,12.36
2023-02-18T14:58:39.914Z,12.36
2023-02-18T14:59:40.542Z,12.42
2023-02-18T15:00:40.470Z,12.39
2023-02-18T15:01:39.702Z,12.31
2023-02-18T15:02:41.366Z,12.27
2023-02-18T15:03:39.907Z,12.24
2023-02-18T15:04:39.861Z,12.24
2023-02-18T15:05:40.040Z,12.18
2023-02-18T15:06:39.960Z,12.21
2023-02-18T15:07:39.643Z,12.17
2023-02-18T15:08:39.743Z,12.12
2023-02-18T15:09:39.869Z,12.12
2023-02-18T15:10:41.911Z,12.06
2023-02-18T15:11:40.015Z,11.91
2023-02-18T15:12:40.056Z,11.97
2023-02-18T15:13:40.050Z,11.88
2023-02-18T15:14:40.020Z,11.68
2023-02-18T15:15:40.045Z,11.77
2023-02-18T15:16:40.281Z,11.87
2023-02-18T15:17:39.858Z,11.72
2023-02-18T15:18:40.511Z,11.73
2023-02-18T15:19:40.285Z,11.62
2023-02-18T15:20:40.550Z,11.59
2023-02-18T15:21:40.631Z,11.59
2023-02-18T15:22:40.056Z,11.51
2023-02-18T15:23:40.098Z,11.55
2023-02-18T15:24:40.023Z,11.48
2023-02-18T15:25:39.885Z,11.47
2023-02-18T15:26:40.469Z,11.41
2023-02-18T15:27:40.120Z,11.41
2023-02-18T15:28:39.903Z,11.4
2023-02-18T15:29:39.744Z,11.43
2023-02-18T15:30:40.343Z,11.33
2023-02-18T15:31:40.655Z,11.35
2023-02-18T15:32:40.438Z,11.26
2023-02-18T15:33:40.285Z,11.25
2023-02-18T15:34:41.145Z,11.23
2023-02-18T15:35:41.204Z,11.25
2023-02-18T15:36:40.546Z,11.22
2023-02-18T15:37:41.744Z,11.11
2023-02-18T15:38:41.308Z,11.07
2023-02-18T15:39:44.004Z,10.99
2023-02-18T15:40:41.141Z,11.05
2023-02-18T15:41:40.007Z,10.94
2023-02-18T15:42:40.564Z,10.89
2023-02-18T15:43:40.256Z,10.93
2023-02-18T15:44:40.376Z,10.89
2023-02-18T15:45:41.107Z,10.94
2023-02-18T15:46:40.555Z,10.93
2023-02-18T15:47:40.363Z,10.9
2023-02-18T15:48:40.816Z,10.87
2023-02-18T15:49:40.315Z,10.92
2023-02-18T15:50:40.639Z,10.9
2023-02-18T15:51:40.348Z,10.89
2023-02-18T15:52:40.823Z,10.86
2023-02-18T15:53:40.644Z,10.92
2023-02-18T15:54:42.050Z,10.9
2023-02-18T15:55:40.169Z,10.9
2023-02-18T15:56:40.212Z,10.92
2023-02-18T15:57:40.735Z,10.89
2023-02-18T15:58:40.688Z,10.92
2023-02-18T15:59:40.633Z,10.89
2023-02-18T16:00:40.628Z,10.75
2023-02-18T16:01:41.255Z,10.74
2023-02-18T16:02:40.231Z,10.79
2023-02-18T16:03:40.456Z,10.78
2023-02-18T16:04:40.751Z,10.79
2023-02-18T16:05:40.223Z,10.78
2023-02-18T16:06:41.402Z,10.69
2023-02-18T16:07:40.716Z,10.67
2023-02-18T16:08:40.544Z,10.79
2023-02-18T16:09:40.443Z,10.72
2023-02-18T16:10:40.980Z,10.63
2023-02-18T16:11:40.458Z,10.61
2023-02-18T16:12:41.452Z,10.72
2023-02-18T16:13:40.574Z,10.59
2023-02-18T16:14:40.702Z,10.61
2023-02-18T16:15:41.831Z,10.61
2023-02-18T16:16:41.036Z,10.71
2023-02-18T16:17:40.346Z,10.67
2023-02-18T16:18:40.439Z,10.61
2023-02-18T16:19:41.577Z,10.59
2023-02-18T16:20:40.942Z,10.56
2023-02-18T16:21:40.396Z,10.56
2023-02-18T16:22:40.672Z,10.57
2023-02-18T16:23:40.297Z,10.51
2023-02-18T16:24:40.401Z,10.44
2023-02-18T16:25:40.409Z,10.44
2023-02-18T16:26:40.489Z,10.46
2023-02-18T16:27:40.906Z,10.44
2023-02-18T16:28:40.516Z,10.38
2023-02-18T16:29:40.697Z,10.41
2023-02-18T16:30:40.873Z,10.34
2023-02-18T16:31:41.782Z,10.4
2023-02-18T16:32:40.750Z,10.34
2023-02-18T16:33:41.096Z,10.37
2023-02-18T16:34:41.140Z,10.37
2023-02-18T16:35:54.652Z,10.33
2023-02-18T16:36:41.074Z,10.41
2023-02-18T16:37:40.786Z,10.34
2023-02-18T16:38:40.796Z,10.35
2023-02-18T16:39:41.106Z,10.28
2023-02-18T16:40:40.320Z,10.35
2023-02-18T16:41:40.861Z,10.31
2023-02-18T16:42:42.683Z,10.33
2023-02-18T16:43:40.587Z,10.34
2023-02-18T16:44:41.134Z,10.34
2023-02-18T16:45:40.817Z,10.37
2023-02-18T16:46:40.856Z,10.31
2023-02-18T16:47:41.513Z,10.38
2023-02-18T16:48:40.976Z,10.3
2023-02-18T16:49:40.691Z,10.31
2023-02-18T16:50:41.236Z,10.34
2023-02-18T16:51:42.465Z,10.33
2023-02-18T16:52:41.316Z,10.31
2023-02-18T16:53:40.839Z,10.26
2023-02-18T16:54:41.039Z,10.37
2023-02-18T16:55:41.235Z,10.3
2023-02-18T16:56:41.125Z,10.35
2023-02-18T16:57:40.703Z,10.33
2023-02-18T16:58:40.512Z,10.25
2023-02-18T16:59:40.979Z,10.25
2023-02-18T17:00:41.353Z,10.26
2023-02-18T17:01:40.985Z,10.26
2023-02-18T17:02:41.031Z,10.3
2023-02-18T17:03:41.870Z,10.25
2023-02-18T17:04:41.069Z,10.26
2023-02-18T17:05:40.902Z,10.22
2023-02-18T17:06:41.358Z,10.26
2023-02-18T17:07:41.650Z,10.3
2023-02-18T17:08:41.412Z,10.17
2023-02-18T17:09:41.001Z,10.23
2023-02-18T17:10:41.183Z,10.19
2023-02-18T17:11:41.678Z,10.26
2023-02-18T17:12:41.761Z,10.19
2023-02-18T17:13:40.853Z,10.16
2023-02-18T17:14:41.568Z,10.23
2023-02-18T17:15:40.868Z,10.17
2023-02-18T17:16:41.341Z,10.26
2023-02-18T17:17:41.146Z,10.3
2023-02-18T17:18:40.912Z,10.19
2023-02-18T17:19:41.348Z,10.19
2023-02-18T17:20:40.953Z,10.23
2023-02-18T17:21:41.200Z,10.13
2023-02-18T17:22:41.054Z,10.13
2023-02-18T17:23:40.948Z,10.13
2023-02-18T17:24:41.030Z,10.13
2023-02-18T17:25:41.222Z,10.1
2023-02-18T17:26:41.862Z,10.12
2023-02-18T17:27:41.857Z,10.07
2023-02-18T17:28:41.912Z,10.12
2023-02-18T17:29:41.254Z,10.07
2023-02-18T17:30:41.493Z,10.09
2023-02-18T17:31:41.389Z,10.09
2023-02-18T17:32:41.594Z,10.05
2023-02-18T17:33:41.553Z,10.1
2023-02-18T17:34:41.299Z,10.1
2023-02-18T17:35:41.870Z,10.16
2023-02-18T17:36:41.334Z,10.02
2023-02-18T17:37:41.951Z,10.1
2023-02-18T17:38:42.414Z,10.12
2023-02-18T17:39:41.610Z,10.1
2023-02-18T17:40:41.456Z,10.1
2023-02-18T17:41:41.996Z,10.13
2023-02-18T17:42:41.118Z,10.1
2023-02-18T17:43:41.977Z,10.09
2023-02-18T17:44:41.156Z,10.13
2023-02-18T17:45:41.540Z,10.05
2023-02-18T17:46:41.217Z,10.01
2023-02-18T17:47:41.189Z,9.99
2023-02-18T17:48:41.897Z,10.04
2023-02-18T17:49:41.267Z,9.98
2023-02-18T17:50:41.498Z,9.92
2023-02-18T17:51:41.508Z,9.87
2023-02-18T17:52:41.813Z,9.89
2023-02-18T17:53:41.553Z,9.83
2023-02-18T17:54:41.636Z,9.8
2023-02-18T17:55:41.491Z,9.91
2023-02-18T17:56:41.534Z,9.8
2023-02-18T17:57:41.448Z,9.76
2023-02-18T17:58:41.494Z,9.79
2023-02-18T17:59:41.612Z,9.8
2023-02-18T18:00:42.100Z,9.83
2023-02-18T18:01:41.825Z,9.79
2023-02-18T18:02:41.882Z,9.79
2023-02-18T18:03:41.674Z,9.76
2023-02-18T18:04:42.765Z,9.77
2023-02-18T18:05:42.136Z,9.8
2023-02-18T18:06:41.846Z,9.68
2023-02-18T18:07:41.424Z,9.77
2023-02-18T18:08:42.071Z,9.72
2023-02-18T18:09:41.724Z,9.74
2023-02-18T18:10:41.953Z,9.72
2023-02-18T18:11:41.635Z,9.66
2023-02-18T18:12:41.404Z,9.65
2023-02-18T18:13:41.917Z,9.68
2023-02-18T18:14:41.655Z,9.69
2023-02-18T18:15:41.481Z,9.62
2023-02-18T18:16:42.153Z,9.68
2023-02-18T18:17:41.669Z,9.74
2023-02-18T18:18:42.015Z,9.62
2023-02-18T18:19:41.879Z,9.56
2023-02-18T18:20:42.319Z,9.54
2023-02-18T18:21:42.465Z,9.59
2023-02-18T18:22:41.485Z,9.61
2023-02-18T18:23:41.504Z,9.61
2023-02-18T18:24:42.682Z,9.58
2023-02-18T18:25:41.525Z,9.68
2023-02-18T18:26:42.121Z,9.68
2023-02-18T18:27:41.515Z,9.65
2023-02-18T18:28:42.303Z,9.66
2023-02-18T18:29:42.361Z,9.65
2023-02-18T18:30:42.143Z,9.66
2023-02-18T18:31:42.088Z,9.68
2023-02-18T18:32:42.174Z,9.72
2023-02-18T18:33:41.823Z,9.64
2023-02-18T18:34:42.168Z,9.58
2023-02-18T18:35:41.891Z,9.68
2023-02-18T18:36:41.869Z,9.66
2023-02-18T18:37:42.524Z,9.65
2023-02-18T18:38:42.474Z,9.65
2023-02-18T18:39:42.568Z,9.64
2023-02-18T18:40:43.088Z,9.68
2023-02-18T18:41:41.746Z,9.66
2023-02-18T18:42:41.973Z,9.69
2023-02-18T18:43:41.664Z,9.59
2023-02-18T18:44:41.904Z,9.5
2023-02-18T18:45:42.069Z,9.47
2023-02-18T18:46:41.938Z,9.46
2023-02-18T18:47:41.945Z,9.41
2023-02-18T18:48:41.534Z,9.37
2023-02-18T18:49:42.401Z,9.31
2023-02-18T18:50:42.348Z,9.31
2023-02-18T18:51:41.970Z,9.25
2023-02-18T18:52:41.978Z,9.21
2023-02-18T18:53:42.935Z,9.25
2023-02-18T18:54:42.331Z,9.14
2023-02-18T18:55:42.676Z,9.14
2023-02-18T18:56:42.805Z,9.06
2023-02-18T18:57:42.031Z,9.02